Portada
METAR-TAF:

METAR-TAF

Aeroports :

Phrae, Tailàndia

latitud: 18-10N, longitud: 100-10E, altitud: 161 m

Observació

L'informe es va fer fa 1 hora i 2 minuts, a les 02:00 UTC
Vent calma
Temperatura 26°C
Humitat 94%
Pressió 1015 hPa
Visibilitat: 8000 m
Escasses núvols a una alçada de 1500 ft
Núvols disperses a una alçada de 3000 ft
Cel ennuvolat a una alçada de 10000 ft

METAR: VTCP 140200Z 00000KT 8000 FEW015 SCT030 BKN100 26/25 Q1015 NOSIG

Hora: 10:02 (03:02 UTC)

Pronòstic

L'informe es va fer fa 4 hores i 2 minuts, a les 23:00 UTC
Pronòstic vàlid del 14 a les 00 UTC al 14 a les 24 UTC
Vent 5 kt del Est
Visibilitat: 3000 m
boirina
Evolucionant progressivament
l' 14 a les 01 UTC al 14 a les 03 UTC
Visibilitat 10 km o més
Escasses núvols a una alçada de 2500 ft

TAF: VTCP 132300Z 1400/1424 09005KT 3000 BR NSC BECMG 1401/1403 9999 NSW FEW025

Observacions i pronòstics meteorològics de més de 4000 aeroports (METAR i TAF).

Les estacions disponibles són els punts grocs i vermells al mapa.

Posi el ratolí al punt desitjat per veure el nom de l'estació.

Feu clic per veure les observacions i els pronòstics meteorològics.

Per canviar el mapa: feu clic els botons verds amb una creu de color negre per apropar; al botó verd amb un guió per allunyar la imatge; o en les fletxes verdes per a mapes adjacents.


METAR-TAF: